createdAt,value
2018-09-13T00:02:19.409Z,14.20
2018-09-13T00:04:47.617Z,14.20
2018-09-13T00:07:15.832Z,14.20
2018-09-13T00:09:44.022Z,14.10
2018-09-13T00:12:12.277Z,14.10
2018-09-13T00:14:40.785Z,14.20
2018-09-13T00:17:08.997Z,14.20
2018-09-13T00:19:37.195Z,14.20
2018-09-13T00:22:05.907Z,14.20
2018-09-13T00:24:34.090Z,14.30
2018-09-13T00:27:02.270Z,14.30
2018-09-13T00:29:30.474Z,14.20
2018-09-13T00:31:58.670Z,14.10
2018-09-13T00:34:26.861Z,14.10
2018-09-13T00:36:55.176Z,14.10
2018-09-13T00:39:23.365Z,14.10
2018-09-13T00:41:51.557Z,14.00
2018-09-13T00:44:19.753Z,14.00
2018-09-13T00:46:48.001Z,13.90
2018-09-13T00:49:16.229Z,13.90
2018-09-13T00:51:44.909Z,13.90
2018-09-13T00:54:13.141Z,13.90
2018-09-13T00:56:41.372Z,13.90
2018-09-13T00:59:09.946Z,13.90
2018-09-13T01:01:38.141Z,13.90
2018-09-13T01:04:06.410Z,13.80
2018-09-13T01:06:35.175Z,13.80
2018-09-13T01:09:03.409Z,13.70
2018-09-13T01:11:31.595Z,13.70
2018-09-13T01:13:59.897Z,13.70
2018-09-13T01:16:28.083Z,13.80
2018-09-13T01:18:56.296Z,13.80
2018-09-13T01:21:24.842Z,13.80
2018-09-13T01:23:53.038Z,13.80
2018-09-13T01:26:21.274Z,13.80
2018-09-13T01:28:50.283Z,13.90
2018-09-13T01:31:18.513Z,13.90
2018-09-13T01:33:46.766Z,13.80
2018-09-13T01:36:15.309Z,13.80
2018-09-13T01:38:43.504Z,13.80
2018-09-13T01:41:11.702Z,13.80
2018-09-13T01:43:40.581Z,13.80
2018-09-13T01:46:08.975Z,13.80
2018-09-13T01:48:37.492Z,13.70
2018-09-13T01:51:06.317Z,13.80
2018-09-13T01:53:34.507Z,13.80
2018-09-13T01:56:02.699Z,13.70
2018-09-13T01:58:31.648Z,13.70
2018-09-13T02:00:59.897Z,13.80
2018-09-13T02:03:28.129Z,13.70
2018-09-13T02:05:56.449Z,13.70
2018-09-13T02:08:24.697Z,13.60
2018-09-13T02:10:52.898Z,13.70
2018-09-13T02:13:21.492Z,13.70
2018-09-13T02:15:49.825Z,13.70
2018-09-13T02:18:18.114Z,13.70
2018-09-13T02:20:46.689Z,13.70
2018-09-13T02:23:14.894Z,13.70
2018-09-13T02:25:43.204Z,13.70
2018-09-13T02:28:11.998Z,13.70
2018-09-13T02:30:40.185Z,13.60
2018-09-13T02:33:08.406Z,13.60
2018-09-13T02:35:36.705Z,13.70
2018-09-13T02:38:04.918Z,13.60
2018-09-13T02:40:33.136Z,13.60
2018-09-13T02:43:01.969Z,13.60
2018-09-13T02:45:30.144Z,13.60
2018-09-13T02:47:58.350Z,13.50
2018-09-13T02:50:27.112Z,13.50
2018-09-13T02:52:55.343Z,13.40
2018-09-13T02:55:23.583Z,13.40
2018-09-13T02:57:52.554Z,13.40
2018-09-13T03:00:20.790Z,13.40
2018-09-13T03:02:49.017Z,13.40
2018-09-13T03:05:18.110Z,13.30
2018-09-13T03:07:46.369Z,13.30
2018-09-13T03:10:14.568Z,13.20
2018-09-13T03:12:43.138Z,13.20
2018-09-13T03:15:11.318Z,13.10
2018-09-13T03:17:39.499Z,13.10
2018-09-13T03:20:07.713Z,13.00
2018-09-13T03:22:35.925Z,13.00
2018-09-13T03:25:04.305Z,13.00
2018-09-13T03:27:33.418Z,13.20
2018-09-13T03:30:01.655Z,13.10
2018-09-13T03:32:29.879Z,13.10
2018-09-13T03:34:58.612Z,13.10
2018-09-13T03:37:26.804Z,13.10
2018-09-13T03:39:55.022Z,13.10
2018-09-13T03:42:23.350Z,13.10
2018-09-13T03:44:51.620Z,13.00
2018-09-13T03:47:19.840Z,13.10
2018-09-13T03:49:48.066Z,13.10
2018-09-13T03:52:16.759Z,13.10
2018-09-13T03:54:44.974Z,13.10
2018-09-13T03:57:13.217Z,13.10
2018-09-13T03:59:41.454Z,13.10
2018-09-13T04:02:09.673Z,13.00
2018-09-13T04:04:38.225Z,13.00
2018-09-13T04:07:06.426Z,12.90
2018-09-13T04:09:34.613Z,12.90
2018-09-13T04:12:02.910Z,12.90
2018-09-13T04:14:31.133Z,13.00
2018-09-13T04:16:59.481Z,12.90
2018-09-13T04:19:34.597Z,12.90
2018-09-13T04:22:02.797Z,12.90
2018-09-13T04:24:31.105Z,12.80
2018-09-13T04:26:59.606Z,12.80
2018-09-13T04:29:27.938Z,12.80
2018-09-13T04:31:56.112Z,12.70
2018-09-13T04:34:24.392Z,12.70
2018-09-13T04:36:52.590Z,12.70
2018-09-13T04:39:20.770Z,12.70
2018-09-13T04:41:48.973Z,12.70
2018-09-13T04:44:17.173Z,12.70
2018-09-13T04:46:45.384Z,12.70
2018-09-13T04:49:14.279Z,12.70
2018-09-13T04:51:42.450Z,12.70
2018-09-13T04:54:10.777Z,12.60
2018-09-13T04:56:39.542Z,12.50
2018-09-13T04:59:08.199Z,12.60
2018-09-13T05:01:37.731Z,12.50
2018-09-13T05:04:06.662Z,12.50
2018-09-13T05:06:34.956Z,12.30
2018-09-13T05:09:03.982Z,12.30
2018-09-13T05:11:32.724Z,12.30
2018-09-13T05:14:00.962Z,12.20
2018-09-13T05:16:29.152Z,12.20
2018-09-13T05:18:57.393Z,12.20
2018-09-13T05:21:25.602Z,12.20
2018-09-13T05:23:53.785Z,12.20
2018-09-13T05:26:22.690Z,12.20
2018-09-13T05:28:51.218Z,12.10
2018-09-13T05:31:19.450Z,12.20
2018-09-13T05:33:48.446Z,12.20
2018-09-13T05:36:16.822Z,12.30
2018-09-13T05:38:45.124Z,12.30
2018-09-13T05:41:14.320Z,12.30
2018-09-13T05:43:42.501Z,12.30
2018-09-13T05:46:10.680Z,12.30
2018-09-13T05:48:38.878Z,12.30
2018-09-13T05:51:07.121Z,12.40
2018-09-13T05:53:35.325Z,12.40
2018-09-13T05:56:04.023Z,12.40
2018-09-13T05:58:32.257Z,12.30
2018-09-13T06:01:01.147Z,12.40
2018-09-13T06:03:29.425Z,12.40
2018-09-13T06:05:57.666Z,12.40
2018-09-13T06:08:25.881Z,12.40
2018-09-13T06:10:54.640Z,12.50
2018-09-13T06:13:22.880Z,12.60
2018-09-13T06:15:51.081Z,12.80
2018-09-13T06:18:20.006Z,12.90
2018-09-13T06:20:48.250Z,12.90
2018-09-13T06:23:16.465Z,13.00
2018-09-13T06:25:44.741Z,13.00
2018-09-13T06:28:13.007Z,13.10
2018-09-13T06:30:41.177Z,13.20
2018-09-13T06:33:09.830Z,13.30
2018-09-13T06:35:38.013Z,13.30
2018-09-13T06:38:06.201Z,13.40
2018-09-13T06:40:34.513Z,13.40
2018-09-13T06:43:03.632Z,13.60
2018-09-13T06:45:31.846Z,13.60
2018-09-13T06:48:00.745Z,13.70
2018-09-13T06:50:29.029Z,13.80
2018-09-13T06:52:57.225Z,13.80
2018-09-13T06:55:25.771Z,13.60
2018-09-13T06:57:54.160Z,13.50
2018-09-13T07:00:22.344Z,13.50
2018-09-13T07:02:50.734Z,13.60
2018-09-13T07:05:18.945Z,14.40
2018-09-13T07:07:47.161Z,14.40
2018-09-13T07:10:15.850Z,14.80
2018-09-13T07:12:44.064Z,15.20
2018-09-13T07:15:12.245Z,14.90
2018-09-13T07:17:40.525Z,14.40
2018-09-13T07:20:08.745Z,14.60
2018-09-13T07:22:36.939Z,14.90
2018-09-13T07:25:05.224Z,15.00
2018-09-13T07:27:33.409Z,15.00
2018-09-13T07:30:01.717Z,14.90
2018-09-13T07:32:30.333Z,15.10
2018-09-13T07:34:58.521Z,15.20
2018-09-13T07:37:27.025Z,15.30
2018-09-13T07:39:55.325Z,15.30
2018-09-13T07:42:23.511Z,15.40
2018-09-13T07:44:51.694Z,15.40
2018-09-13T07:47:19.913Z,15.50
2018-09-13T07:49:48.249Z,15.50
2018-09-13T07:52:16.306Z,15.60
2018-09-13T07:54:44.625Z,15.70
2018-09-13T07:57:12.801Z,15.80
2018-09-13T07:59:41.065Z,16.00
2018-09-13T08:02:09.289Z,16.10
2018-09-13T08:04:37.497Z,16.10
2018-09-13T08:07:05.762Z,16.20
2018-09-13T08:09:33.987Z,16.30
2018-09-13T08:12:02.334Z,16.20
2018-09-13T08:14:30.445Z,16.10
2018-09-13T08:16:59.248Z,16.20
2018-09-13T08:19:27.444Z,16.10
2018-09-13T08:21:55.665Z,16.30
2018-09-13T08:24:24.258Z,16.30
2018-09-13T08:26:52.495Z,16.50
2018-09-13T08:29:20.718Z,16.40
2018-09-13T08:31:49.437Z,16.40
2018-09-13T08:34:17.661Z,16.80
2018-09-13T08:36:45.885Z,17.00
2018-09-13T08:39:14.089Z,17.20
2018-09-13T08:41:42.323Z,17.20
2018-09-13T08:44:10.538Z,17.30
2018-09-13T08:46:38.849Z,17.40
2018-09-13T08:49:07.084Z,17.40
2018-09-13T08:51:35.286Z,17.40
2018-09-13T08:54:03.599Z,17.50
2018-09-13T08:56:31.823Z,17.60
2018-09-13T08:59:00.069Z,17.60
2018-09-13T09:01:28.758Z,17.50
2018-09-13T09:03:56.981Z,17.50
2018-09-13T09:06:25.224Z,17.70
2018-09-13T09:08:53.551Z,17.60
2018-09-13T09:11:21.757Z,17.60
2018-09-13T09:13:49.981Z,17.20
2018-09-13T09:16:18.588Z,17.50
2018-09-13T09:18:46.814Z,17.70
2018-09-13T09:21:15.019Z,18.10
2018-09-13T09:23:43.263Z,18.40
2018-09-13T09:26:11.453Z,18.20
2018-09-13T09:28:39.738Z,18.40
2018-09-13T09:31:07.980Z,18.30
2018-09-13T09:33:36.270Z,18.50
2018-09-13T09:36:04.474Z,18.70
2018-09-13T09:38:33.090Z,18.70
2018-09-13T09:41:01.331Z,19.00
2018-09-13T09:43:29.547Z,18.80
2018-09-13T09:45:57.797Z,18.90
2018-09-13T09:48:26.018Z,19.20
2018-09-13T09:50:54.337Z,19.50
2018-09-13T09:53:23.179Z,19.60
2018-09-13T09:55:51.385Z,19.70
2018-09-13T09:58:19.612Z,19.50
2018-09-13T10:00:53.409Z,19.30
2018-09-13T10:03:21.677Z,19.60
2018-09-13T10:05:49.889Z,19.70
2018-09-13T10:08:20.554Z,19.70
2018-09-13T10:10:48.738Z,19.10
2018-09-13T10:13:17.167Z,18.70
2018-09-13T10:15:51.378Z,18.50
2018-09-13T10:18:25.042Z,18.50
2018-09-13T10:20:58.659Z,19.00
2018-09-13T10:23:32.238Z,19.30
2018-09-13T10:26:06.413Z,19.50
2018-09-13T10:28:39.951Z,19.90
2018-09-13T10:31:13.850Z,19.80
2018-09-13T10:33:47.374Z,19.60
2018-09-13T10:36:21.522Z,19.90
2018-09-13T10:38:55.081Z,20.10
2018-09-13T10:41:29.080Z,19.80
2018-09-13T10:44:02.587Z,20.00
2018-09-13T10:46:32.128Z,20.00
2018-09-13T10:49:05.852Z,20.10
2018-09-13T10:51:39.597Z,20.00
2018-09-13T10:54:11.467Z,19.80
2018-09-13T10:56:40.445Z,20.20
2018-09-13T10:59:08.661Z,20.30
2018-09-13T11:01:36.955Z,20.60
2018-09-13T11:04:05.844Z,21.00
2018-09-13T11:06:34.027Z,20.90
2018-09-13T11:09:02.315Z,20.70
2018-09-13T11:11:31.282Z,20.60
2018-09-13T11:14:03.717Z,20.70
2018-09-13T11:16:32.344Z,20.70
2018-09-13T11:19:00.659Z,20.70
2018-09-13T11:21:28.873Z,21.10
2018-09-13T11:23:57.486Z,21.10
2018-09-13T11:26:25.721Z,21.10
2018-09-13T11:28:53.909Z,21.10
2018-09-13T11:31:22.229Z,20.80
2018-09-13T11:33:50.413Z,20.90
2018-09-13T11:36:18.610Z,21.00
2018-09-13T11:38:47.390Z,21.70
2018-09-13T11:41:15.592Z,21.60
2018-09-13T11:43:43.802Z,21.40
2018-09-13T11:46:12.583Z,21.20
2018-09-13T11:48:40.784Z,21.60
2018-09-13T11:51:08.968Z,21.80
2018-09-13T11:53:37.544Z,21.50
2018-09-13T11:56:05.746Z,22.00
2018-09-13T11:58:33.930Z,22.00
2018-09-13T12:01:02.553Z,21.70
2018-09-13T12:03:30.713Z,22.00
2018-09-13T12:05:59.270Z,22.00
2018-09-13T12:08:27.769Z,22.30
2018-09-13T12:10:55.949Z,22.40
2018-09-13T12:13:24.193Z,22.50
2018-09-13T12:15:52.746Z,22.30
2018-09-13T12:18:21.003Z,22.30
2018-09-13T12:20:49.141Z,22.30
2018-09-13T12:23:17.370Z,22.50
2018-09-13T12:25:45.599Z,22.80
2018-09-13T12:28:13.794Z,22.80
2018-09-13T12:30:42.598Z,22.50
2018-09-13T12:33:10.999Z,22.20
2018-09-13T12:35:39.184Z,21.60
2018-09-13T12:38:07.403Z,21.10
2018-09-13T12:40:35.598Z,20.70
2018-09-13T12:43:03.830Z,20.40
2018-09-13T12:45:32.153Z,20.00
2018-09-13T12:48:00.381Z,19.90
2018-09-13T12:50:28.596Z,19.80
2018-09-13T12:52:56.863Z,19.70
2018-09-13T12:55:30.378Z,19.80
2018-09-13T12:57:59.271Z,20.30
2018-09-13T13:00:27.481Z,20.30
2018-09-13T13:02:55.693Z,20.60
2018-09-13T13:05:24.006Z,21.20
2018-09-13T13:07:52.277Z,22.00
2018-09-13T13:10:20.502Z,22.70
2018-09-13T13:12:49.085Z,22.90
2018-09-13T13:15:17.301Z,22.50
2018-09-13T13:17:45.490Z,22.60
2018-09-13T13:20:14.689Z,22.10
2018-09-13T13:22:42.880Z,22.30
2018-09-13T13:25:11.085Z,22.80
2018-09-13T13:27:39.552Z,23.40
2018-09-13T13:30:07.661Z,23.00
2018-09-13T13:32:35.857Z,22.20
2018-09-13T13:35:04.386Z,21.90
2018-09-13T13:37:32.565Z,22.70
2018-09-13T13:40:00.763Z,21.80
2018-09-13T13:42:29.356Z,21.80
2018-09-13T13:44:57.567Z,22.00
2018-09-13T13:47:25.758Z,22.40
2018-09-13T13:49:54.281Z,21.80
2018-09-13T13:52:22.486Z,21.80
2018-09-13T13:54:50.661Z,21.80
2018-09-13T13:57:19.450Z,22.00
2018-09-13T13:59:47.692Z,21.90
2018-09-13T14:02:15.840Z,22.20
2018-09-13T14:04:44.681Z,22.50
2018-09-13T14:07:12.878Z,22.20
2018-09-13T14:09:41.195Z,22.30
2018-09-13T14:12:09.362Z,22.10
2018-09-13T14:14:37.562Z,21.90
2018-09-13T14:17:05.781Z,21.90
2018-09-13T14:19:34.002Z,21.60
2018-09-13T14:22:02.205Z,21.40
2018-09-13T14:24:30.399Z,21.20
2018-09-13T14:26:58.618Z,21.20
2018-09-13T14:29:26.852Z,21.20
2018-09-13T14:31:55.030Z,21.50
2018-09-13T14:34:23.637Z,21.50
2018-09-13T14:36:51.833Z,21.00
2018-09-13T14:39:20.037Z,21.00
2018-09-13T14:41:49.050Z,21.00
2018-09-13T14:44:17.259Z,20.90
2018-09-13T14:46:45.441Z,20.80
2018-09-13T14:49:13.638Z,20.40
2018-09-13T14:51:41.836Z,20.50
2018-09-13T14:54:10.022Z,20.40
2018-09-13T14:56:38.813Z,20.00
2018-09-13T14:59:07.034Z,20.00
2018-09-13T15:01:35.225Z,20.00
2018-09-13T15:04:03.482Z,19.90
2018-09-13T15:06:31.672Z,19.80
2018-09-13T15:08:59.906Z,19.50
2018-09-13T15:11:28.793Z,19.50
2018-09-13T15:13:56.977Z,19.40
2018-09-13T15:16:25.701Z,19.50
2018-09-13T15:18:53.965Z,19.60
2018-09-13T15:21:22.153Z,19.80
2018-09-13T15:23:50.353Z,19.50
2018-09-13T15:26:18.584Z,19.20
2018-09-13T15:28:46.776Z,19.40
2018-09-13T15:31:15.016Z,19.30
2018-09-13T15:33:43.209Z,19.30
2018-09-13T15:36:11.398Z,19.40
2018-09-13T15:38:41.314Z,19.50
2018-09-13T15:41:09.849Z,19.30
2018-09-13T15:43:38.034Z,19.30
2018-09-13T15:46:06.274Z,19.30
2018-09-13T15:48:35.015Z,19.30
2018-09-13T15:51:03.218Z,19.30
2018-09-13T15:53:31.412Z,19.30
2018-09-13T15:55:59.801Z,19.20
2018-09-13T15:58:28.002Z,19.00
2018-09-13T16:00:56.233Z,19.00
2018-09-13T16:03:24.473Z,18.90
2018-09-13T16:05:52.697Z,18.80
2018-09-13T16:08:20.894Z,18.90
2018-09-13T16:10:49.788Z,18.90
2018-09-13T16:13:18.106Z,18.80
2018-09-13T16:15:46.288Z,18.80
2018-09-13T16:18:15.410Z,18.70
2018-09-13T16:20:43.997Z,18.70
2018-09-13T16:23:12.186Z,18.70
2018-09-13T16:25:40.888Z,18.70
2018-09-13T16:28:09.102Z,18.70
2018-09-13T16:30:37.317Z,18.60
2018-09-13T16:33:05.518Z,18.60
2018-09-13T16:35:33.713Z,18.50
2018-09-13T16:38:07.982Z,18.50
2018-09-13T16:40:41.613Z,18.50
2018-09-13T16:43:14.387Z,18.40
2018-09-13T16:45:42.605Z,18.40
2018-09-13T16:48:10.966Z,18.40
2018-09-13T16:50:39.767Z,18.40
2018-09-13T16:53:08.046Z,18.20
2018-09-13T16:55:36.184Z,18.10
2018-09-13T16:58:04.613Z,18.10
2018-09-13T17:00:32.859Z,18.10
2018-09-13T17:03:01.049Z,18.20
2018-09-13T17:05:29.801Z,18.20
2018-09-13T17:07:58.042Z,18.10
2018-09-13T17:10:26.302Z,18.10
2018-09-13T17:12:54.937Z,18.10
2018-09-13T17:15:23.210Z,18.10
2018-09-13T17:17:51.400Z,18.20
2018-09-13T17:20:19.638Z,18.00
2018-09-13T17:22:47.825Z,17.90
2018-09-13T17:25:16.014Z,17.90
2018-09-13T17:27:44.602Z,17.70
2018-09-13T17:30:12.805Z,17.70
2018-09-13T17:32:41.014Z,17.70
2018-09-13T17:35:09.593Z,17.70
2018-09-13T17:37:37.803Z,17.60
2018-09-13T17:40:06.134Z,17.50
2018-09-13T17:42:34.693Z,17.30
2018-09-13T17:45:02.883Z,17.20
2018-09-13T17:47:31.085Z,17.20
2018-09-13T17:49:59.350Z,17.10
2018-09-13T17:52:27.546Z,17.10
2018-09-13T17:54:55.741Z,17.00
2018-09-13T17:57:24.533Z,17.00
2018-09-13T17:59:52.753Z,16.90
2018-09-13T18:02:20.954Z,16.90
2018-09-13T18:04:49.672Z,16.70
2018-09-13T18:07:17.950Z,16.60
2018-09-13T18:09:46.241Z,16.60
2018-09-13T18:12:14.497Z,16.60
2018-09-13T18:14:42.711Z,16.60
2018-09-13T18:17:11.038Z,16.60
2018-09-13T18:19:39.593Z,16.60
2018-09-13T18:22:07.977Z,16.50
2018-09-13T18:24:36.181Z,16.40
2018-09-13T18:27:04.579Z,16.30
2018-09-13T18:29:32.760Z,16.30
2018-09-13T18:32:00.949Z,16.30
2018-09-13T18:34:29.941Z,16.30
2018-09-13T18:36:58.151Z,16.30
2018-09-13T18:39:26.353Z,16.30
2018-09-13T18:41:55.366Z,16.40
2018-09-13T18:44:23.678Z,16.40
2018-09-13T18:46:51.870Z,16.40
2018-09-13T18:49:20.543Z,16.20
2018-09-13T18:51:48.878Z,16.20
2018-09-13T18:54:17.198Z,16.20
2018-09-13T18:56:45.548Z,16.10
2018-09-13T18:59:13.746Z,16.10
2018-09-13T19:01:42.121Z,16.10
2018-09-13T19:04:10.526Z,16.00
2018-09-13T19:06:38.752Z,16.00
2018-09-13T19:09:08.493Z,16.00
2018-09-13T19:11:37.297Z,15.90
2018-09-13T19:14:05.490Z,15.80
2018-09-13T19:16:33.746Z,15.80
2018-09-13T19:19:02.471Z,15.70
2018-09-13T19:21:30.665Z,15.60
2018-09-13T19:23:58.953Z,15.50
2018-09-13T19:26:27.397Z,15.40
2018-09-13T19:28:55.630Z,15.40
2018-09-13T19:31:23.833Z,15.30
2018-09-13T19:33:52.063Z,15.20
2018-09-13T19:36:20.347Z,15.10
2018-09-13T19:38:48.642Z,15.00
2018-09-13T19:41:16.805Z,14.90
2018-09-13T19:43:44.990Z,14.80
2018-09-13T19:46:13.186Z,14.80
2018-09-13T19:48:41.509Z,14.80
2018-09-13T19:51:09.740Z,14.70
2018-09-13T19:53:37.925Z,14.60
2018-09-13T19:56:06.429Z,14.60
2018-09-13T19:58:34.633Z,14.50
2018-09-13T20:01:02.910Z,14.50
2018-09-13T20:03:31.578Z,14.40
2018-09-13T20:05:59.773Z,14.30
2018-09-13T20:08:27.967Z,14.30
2018-09-13T20:10:56.705Z,14.20
2018-09-13T20:13:24.910Z,14.10
2018-09-13T20:15:53.123Z,14.10
2018-09-13T20:18:21.724Z,14.00
2018-09-13T20:20:49.885Z,14.00
2018-09-13T20:23:18.135Z,13.90
2018-09-13T20:25:46.874Z,14.00
2018-09-13T20:28:15.074Z,13.90
2018-09-13T20:30:43.317Z,13.80
2018-09-13T20:33:12.435Z,13.70
2018-09-13T20:35:40.645Z,13.80
2018-09-13T20:38:08.838Z,13.70
2018-09-13T20:40:37.353Z,13.70
2018-09-13T20:43:05.916Z,13.60
2018-09-13T20:45:34.353Z,13.60
2018-09-13T20:48:02.860Z,13.60
2018-09-13T20:50:31.037Z,13.60
2018-09-13T20:52:59.291Z,13.50
2018-09-13T20:55:27.865Z,13.50
2018-09-13T20:57:56.061Z,13.40
2018-09-13T21:00:24.249Z,13.50
2018-09-13T21:02:52.482Z,13.40
2018-09-13T21:05:20.684Z,13.40
2018-09-13T21:07:48.890Z,13.30
2018-09-13T21:10:17.250Z,13.20
2018-09-13T21:12:45.446Z,13.20
2018-09-13T21:15:13.682Z,13.10
2018-09-13T21:17:42.266Z,13.00
2018-09-13T21:20:10.482Z,13.10
2018-09-13T21:22:39.029Z,13.00
2018-09-13T21:25:07.789Z,13.10
2018-09-13T21:27:36.011Z,13.00
2018-09-13T21:30:04.273Z,13.00
2018-09-13T21:32:32.919Z,13.00
2018-09-13T21:35:01.097Z,13.00
2018-09-13T21:37:29.293Z,13.00
2018-09-13T21:39:57.494Z,13.00
2018-09-13T21:42:25.680Z,13.00
2018-09-13T21:44:53.861Z,12.90
2018-09-13T21:47:22.157Z,12.90
2018-09-13T21:49:50.341Z,12.80
2018-09-13T21:52:18.531Z,12.80
2018-09-13T21:54:46.749Z,12.70
2018-09-13T21:57:14.958Z,12.70
2018-09-13T21:59:43.157Z,12.70
2018-09-13T22:02:11.737Z,12.60
2018-09-13T22:04:39.930Z,12.60
2018-09-13T22:07:08.114Z,12.60
2018-09-13T22:09:36.322Z,12.50
2018-09-13T22:12:04.528Z,12.50
2018-09-13T22:14:32.709Z,12.60
2018-09-13T22:17:01.037Z,12.50
2018-09-13T22:19:29.230Z,12.50
2018-09-13T22:21:57.420Z,12.50
2018-09-13T22:24:25.861Z,12.50
2018-09-13T22:26:54.058Z,12.40
2018-09-13T22:29:22.269Z,12.30
2018-09-13T22:31:50.850Z,12.30
2018-09-13T22:34:19.042Z,12.30
2018-09-13T22:36:47.238Z,12.20
2018-09-13T22:39:15.757Z,12.20
2018-09-13T22:41:43.970Z,12.30
2018-09-13T22:44:12.198Z,12.30
2018-09-13T22:46:40.962Z,12.20
2018-09-13T22:49:09.185Z,12.20
2018-09-13T22:51:37.432Z,12.20
2018-09-13T22:54:06.290Z,12.10
2018-09-13T22:56:34.487Z,12.10
2018-09-13T22:59:02.710Z,12.00
2018-09-13T23:01:31.273Z,12.10
2018-09-13T23:03:59.487Z,12.10
2018-09-13T23:06:27.700Z,12.10
2018-09-13T23:08:56.069Z,12.00
2018-09-13T23:11:24.274Z,12.00
2018-09-13T23:13:52.525Z,11.90
2018-09-13T23:16:20.798Z,11.90
2018-09-13T23:18:49.002Z,11.80
2018-09-13T23:21:17.341Z,11.80
2018-09-13T23:23:46.162Z,11.80
2018-09-13T23:26:14.472Z,11.90
2018-09-13T23:28:42.685Z,11.80
2018-09-13T23:31:11.282Z,11.80
2018-09-13T23:33:39.500Z,11.80
2018-09-13T23:36:07.724Z,11.80
2018-09-13T23:38:35.975Z,11.70
2018-09-13T23:41:04.204Z,11.80
2018-09-13T23:43:32.436Z,11.80
2018-09-13T23:46:00.689Z,11.90
2018-09-13T23:48:28.954Z,11.80
2018-09-13T23:50:57.197Z,11.80
2018-09-13T23:53:25.506Z,11.70
2018-09-13T23:55:53.723Z,11.50
2018-09-13T23:58:21.941Z,11.40
